Terminal Aerodrome Forecast
Issued by NWS Twin Cities, MN

Home | Current Version | Previous Version | Graphics & Text | Print | Product List | Glossary On
Versions: 1 2 3 4 5 6 7 8 9 10 11 12 13 14 15
000
FTUS43 KMPX 230542
TAFEAU
TAF
KEAU 230542Z 2306/2406 21012KT P6SM OVC012
     FM230730 22012KT P6SM OVC100
     FM231500 23011KT P6SM VCSH OVC060
      TEMPO 2315/2317 6SM -FZRAPL
     FM231800 26009KT P6SM SCT030 OVC050
     FM240000 28008KT P6SM OVC020=

USA.gov is the U.S. government's official web portal to all federal, state and local government web resources and services.